Time;durP1;ratioP1;P1;durP2;ratioP2;P2;SDS_P1;SDS_P2;PMS_P1;PMS_P2;Temp;Humidity;BMP_temperature;BMP_pressure;BME280_temperature;BME280_humidity;BME280_pressure;Samples;Min_cycle;Max_cycle;Signal;HPM_P1;HPM_P2
2022/01/09 00:00:05;;;;;;;;;;;24.30;52.40;;;;;;5081507;28;944;-34
2022/01/09 00:02:33;;;;;;;;;;;24.30;52.20;;;;;;5081490;28;1979;-35
2022/01/09 00:05:00;;;;;;;;;;;24.30;52.10;;;;;;5080770;28;1039;-36
2022/01/09 00:07:26;;;;;;;;;;;24.40;52.10;;;;;;5080894;28;948;-36
2022/01/09 00:09:55;;;;;;;;;;;24.30;52.00;;;;;;5080749;28;1013;-36
2022/01/09 00:12:22;;;;;;;;;;;24.30;51.80;;;;;;5081479;28;1027;-36
2022/01/09 00:14:49;;;;;;;;;;;24.30;51.80;;;;;;5080852;28;920;-37
2022/01/09 00:17:16;;;;;;;;;;;24.40;51.70;;;;;;5080785;28;877;-36
2022/01/09 00:19:44;;;;;;;;;;;24.30;51.80;;;;;;5080616;28;1778;-36
2022/01/09 00:22:11;;;;;;;;;;;24.30;51.70;;;;;;5080282;28;1004;-37
2022/01/09 00:24:38;;;;;;;;;;;24.30;51.70;;;;;;5080032;28;1979;-36
2022/01/09 00:27:05;;;;;;;;;;;24.20;51.30;;;;;;5080529;28;969;-36
2022/01/09 00:29:32;;;;;;;;;;;24.20;51.50;;;;;;5080654;28;947;-36
2022/01/09 00:31:58;;;;;;;;;;;24.10;51.20;;;;;;5080863;28;1012;-36
2022/01/09 00:34:25;;;;;;;;;;;24.10;51.70;;;;;;5081008;28;1780;-36
2022/01/09 00:36:53;;;;;;;;;;;24.10;51.70;;;;;;5080290;28;1254;-36
2022/01/09 00:39:20;;;;;;;;;;;24.00;51.80;;;;;;5080621;28;952;-36
2022/01/09 00:41:46;;;;;;;;;;;24.00;51.30;;;;;;5080212;28;1021;-37
2022/01/09 00:44:13;;;;;;;;;;;24.00;51.30;;;;;;5080487;28;1978;-36
2022/01/09 00:46:40;;;;;;;;;;;24.00;51.20;;;;;;5079993;28;1012;-37
2022/01/09 00:49:07;;;;;;;;;;;24.00;51.30;;;;;;5080499;28;1007;-36
2022/01/09 00:51:33;;;;;;;;;;;24.00;51.40;;;;;;5080631;28;1028;-36
2022/01/09 00:54:01;;;;;;;;;;;24.00;51.40;;;;;;5080500;28;940;-36
2022/01/09 00:56:28;;;;;;;;;;;23.90;51.30;;;;;;5079853;28;1019;-36
2022/01/09 00:58:55;;;;;;;;;;;23.90;51.30;;;;;;5080342;28;952;-36
2022/01/09 01:01:22;;;;;;;;;;;23.90;51.40;;;;;;5080662;28;951;-35
2022/01/09 01:03:48;;;;;;;;;;;23.90;51.30;;;;;;5079045;28;1985;-36
2022/01/09 01:06:15;;;;;;;;;;;23.90;51.20;;;;;;5080449;28;1090;-37
2022/01/09 01:08:42;;;;;;;;;;;23.80;51.20;;;;;;5079783;28;952;-36
2022/01/09 01:11:10;;;;;;;;;;;23.80;51.20;;;;;;5079686;28;988;-36
2022/01/09 01:13:37;;;;;;;;;;;23.80;51.40;;;;;;5079964;28;996;-36
2022/01/09 01:16:04;;;;;;;;;;;23.80;51.40;;;;;;5080377;28;909;-36
2022/01/09 01:18:31;;;;;;;;;;;23.80;51.30;;;;;;5080375;28;865;-36
2022/01/09 01:20:57;;;;;;;;;;;23.70;51.30;;;;;;5080426;28;952;-36
2022/01/09 01:23:24;;;;;;;;;;;23.70;51.30;;;;;;5079837;28;1979;-36
2022/01/09 01:25:51;;;;;;;;;;;23.70;51.20;;;;;;5079633;28;980;-36
2022/01/09 01:28:19;;;;;;;;;;;23.70;51.20;;;;;;5079835;28;988;-36
2022/01/09 01:30:46;;;;;;;;;;;23.70;51.10;;;;;;5079839;28;950;-35
2022/01/09 01:33:13;;;;;;;;;;;23.70;51.30;;;;;;5080259;28;948;-35
2022/01/09 01:35:40;;;;;;;;;;;23.70;51.40;;;;;;5079636;28;944;-36
2022/01/09 01:38:06;;;;;;;;;;;23.70;51.20;;;;;;5079449;28;1012;-35
2022/01/09 01:40:33;;;;;;;;;;;23.70;51.30;;;;;;5079859;28;1771;-36
2022/01/09 01:43:00;;;;;;;;;;;23.60;51.20;;;;;;5079980;28;1895;-36
2022/01/09 01:45:28;;;;;;;;;;;23.60;51.40;;;;;;5079702;28;956;-34
2022/01/09 01:48:02;;;;;;;;;;;23.60;51.30;;;;;;5079658;28;1035;-34
2022/01/09 01:50:34;;;;;;;;;;;23.60;51.20;;;;;;5079379;28;860;-34
2022/01/09 01:53:01;;;;;;;;;;;23.60;51.20;;;;;;5079122;28;1027;-33
2022/01/09 01:55:28;;;;;;;;;;;23.60;51.20;;;;;;5079578;28;1004;-36
2022/01/09 01:57:55;;;;;;;;;;;23.70;51.10;;;;;;5079063;28;1008;-34
2022/01/09 02:00:22;;;;;;;;;;;23.60;51.00;;;;;;5079396;28;921;-36
2022/01/09 02:02:50;;;;;;;;;;;23.60;51.00;;;;;;5080557;28;1019;-37
2022/01/09 02:05:17;;;;;;;;;;;23.60;50.80;;;;;;5079168;28;1987;-37
2022/01/09 02:07:44;;;;;;;;;;;23.60;50.90;;;;;;5078887;28;969;-37
2022/01/09 02:10:11;;;;;;;;;;;23.60;50.80;;;;;;5078990;28;952;-38
2022/01/09 02:12:38;;;;;;;;;;;23.60;50.80;;;;;;5079319;28;993;-36
2022/01/09 02:15:20;;;;;;;;;;;23.60;50.70;;;;;;5078940;28;1008;-36
2022/01/09 02:17:47;;;;;;;;;;;23.60;50.60;;;;;;5078573;28;1717;-36
2022/01/09 02:20:15;;;;;;;;;;;23.60;50.60;;;;;;5079129;28;1031;-37
2022/01/09 02:22:41;;;;;;;;;;;23.60;50.50;;;;;;5078513;28;884;-37
2022/01/09 02:25:09;;;;;;;;;;;23.60;50.50;;;;;;5078822;28;1898;-36
2022/01/09 02:27:35;;;;;;;;;;;23.60;50.30;;;;;;5078410;28;1015;-36
2022/01/09 02:30:02;;;;;;;;;;;23.70;50.40;;;;;;5078523;28;1095;-36
2022/01/09 02:32:29;;;;;;;;;;;23.60;50.00;;;;;;5078678;28;937;-36
2022/01/09 02:34:55;;;;;;;;;;;23.60;50.00;;;;;;5078365;28;1003;-38
2022/01/09 02:37:23;;;;;;;;;;;23.60;50.00;;;;;;5078309;28;1103;-36
2022/01/09 02:39:50;;;;;;;;;;;23.60;49.90;;;;;;5079125;28;980;-36
2022/01/09 02:42:21;;;;;;;;;;;23.60;49.90;;;;;;5078306;28;991;-36
2022/01/09 02:44:48;;;;;;;;;;;23.60;49.90;;;;;;5077942;28;1983;-36
2022/01/09 02:47:14;;;;;;;;;;;23.60;49.90;;;;;;5078477;28;947;-36
2022/01/09 02:49:48;;;;;;;;;;;23.60;49.80;;;;;;5078070;28;993;-36
2022/01/09 02:52:28;;;;;;;;;;;23.60;50.00;;;;;;5078431;28;980;-36
2022/01/09 02:55:11;;;;;;;;;;;23.60;49.90;;;;;;5077961;28;1023;-36
2022/01/09 02:57:38;;;;;;;;;;;23.60;50.00;;;;;;5077677;28;944;-37
2022/01/09 03:00:07;;;;;;;;;;;23.60;49.80;;;;;;5077706;28;901;-37
2022/01/09 03:02:34;;;;;;;;;;;23.60;50.00;;;;;;5078072;28;1408;-36
2022/01/09 03:05:01;;;;;;;;;;;23.50;49.90;;;;;;5078481;28;2060;-37
2022/01/09 03:07:28;;;;;;;;;;;23.50;50.00;;;;;;5078772;28;943;-37
2022/01/09 03:09:56;;;;;;;;;;;23.50;50.00;;;;;;5077574;28;1008;-37
2022/01/09 03:12:24;;;;;;;;;;;23.40;50.20;;;;;;5077815;28;1117;-37
2022/01/09 03:14:50;;;;;;;;;;;23.40;50.10;;;;;;5078857;28;1055;-36
2022/01/09 03:17:17;;;;;;;;;;;23.40;50.20;;;;;;5078528;28;1019;-37
2022/01/09 03:19:44;;;;;;;;;;;23.30;50.20;;;;;;5077875;28;1015;-37
2022/01/09 03:22:11;;;;;;;;;;;23.30;50.20;;;;;;5081979;28;1011;-37
2022/01/09 03:24:38;;;;;;;;;;;23.30;50.30;;;;;;5082408;28;1894;-36
2022/01/09 03:27:06;;;;;;;;;;;23.20;50.20;;;;;;5082310;28;948;-36
2022/01/09 03:29:33;;;;;;;;;;;23.20;50.20;;;;;;5082654;28;940;-37
2022/01/09 03:35:24;;;;;;;;;;;23.10;50.40;;;;;;5082594;28;886;-36
2022/01/09 03:37:51;;;;;;;;;;;23.10;50.40;;;;;;5081893;28;1245;-37
2022/01/09 03:40:19;;;;;;;;;;;23.10;50.50;;;;;;5082066;28;949;-37
2022/01/09 03:42:48;;;;;;;;;;;23.10;50.50;;;;;;5082004;28;988;-37
2022/01/09 03:45:15;;;;;;;;;;;23.00;50.50;;;;;;5081645;28;1902;-38
2022/01/09 03:47:42;;;;;;;;;;;23.00;50.50;;;;;;5081886;28;971;-37
2022/01/09 03:50:11;;;;;;;;;;;23.00;50.60;;;;;;5082033;28;972;-36
2022/01/09 03:52:39;;;;;;;;;;;23.00;50.50;;;;;;5081670;28;1047;-36
2022/01/09 03:55:06;;;;;;;;;;;22.90;50.60;;;;;;5081445;28;1313;-37
2022/01/09 03:57:33;;;;;;;;;;;22.90;50.60;;;;;;5081470;28;1027;-38
2022/01/09 04:00:01;;;;;;;;;;;22.90;50.70;;;;;;5081667;28;925;-37
2022/01/09 04:02:28;;;;;;;;;;;22.90;50.80;;;;;;5081737;28;932;-37
2022/01/09 04:04:54;;;;;;;;;;;22.90;50.70;;;;;;5081391;28;1906;-37
2022/01/09 04:07:21;;;;;;;;;;;22.90;50.60;;;;;;5080567;28;928;-36
2022/01/09 04:09:48;;;;;;;;;;;22.90;50.80;;;;;;5080324;28;1007;-37
2022/01/09 04:12:18;;;;;;;;;;;22.80;50.70;;;;;;5080334;28;948;-37
2022/01/09 04:14:45;;;;;;;;;;;22.80;50.70;;;;;;5080316;28;980;-36
2022/01/09 04:17:18;;;;;;;;;;;22.90;50.70;;;;;;5080398;28;984;-36
2022/01/09 04:19:45;;;;;;;;;;;22.80;50.80;;;;;;5080084;28;980;-37
2022/01/09 04:22:12;;;;;;;;;;;22.80;50.70;;;;;;5080084;28;928;-37
2022/01/09 04:24:39;;;;;;;;;;;22.80;50.70;;;;;;5080483;28;1963;-36
2022/01/09 04:27:06;;;;;;;;;;;22.80;50.70;;;;;;5080742;28;988;-36
2022/01/09 04:29:33;;;;;;;;;;;22.80;50.70;;;;;;5081088;28;960;-36
2022/01/09 04:31:59;;;;;;;;;;;22.80;50.80;;;;;;5080641;28;1040;-37
2022/01/09 04:34:28;;;;;;;;;;;22.80;50.80;;;;;;5081004;28;944;-37
2022/01/09 04:36:58;;;;;;;;;;;22.80;50.80;;;;;;5080671;28;1843;-37
2022/01/09 04:39:25;;;;;;;;;;;22.70;50.70;;;;;;5080214;28;1126;-37
2022/01/09 04:41:51;;;;;;;;;;;22.70;50.80;;;;;;5080425;28;1917;-37
2022/01/09 04:44:18;;;;;;;;;;;22.70;50.80;;;;;;5080927;28;1977;-36
2022/01/09 04:46:52;;;;;;;;;;;22.70;50.80;;;;;;5080765;28;1011;-37
2022/01/09 04:49:23;;;;;;;;;;;22.70;50.80;;;;;;5080997;28;953;-36
2022/01/09 04:51:51;;;;;;;;;;;22.70;50.80;;;;;;5080163;28;1198;-37
2022/01/09 04:54:18;;;;;;;;;;;22.70;50.80;;;;;;5080379;28;984;-38
2022/01/09 04:56:44;;;;;;;;;;;22.70;50.70;;;;;;5080589;28;1025;-37
2022/01/09 04:59:11;;;;;;;;;;;22.70;50.70;;;;;;5080584;28;921;-37
2022/01/09 05:01:38;;;;;;;;;;;22.60;50.60;;;;;;5080312;28;990;-37
2022/01/09 05:04:05;;;;;;;;;;;22.60;50.60;;;;;;5080469;28;1897;-37
2022/01/09 05:06:31;;;;;;;;;;;22.60;50.60;;;;;;5080937;28;1003;-36
2022/01/09 05:08:59;;;;;;;;;;;22.60;50.60;;;;;;5080329;28;1015;-36
2022/01/09 05:11:26;;;;;;;;;;;22.60;50.60;;;;;;5079960;28;1024;-37
2022/01/09 05:13:53;;;;;;;;;;;22.60;50.60;;;;;;5080138;28;932;-36
2022/01/09 05:16:20;;;;;;;;;;;22.60;50.70;;;;;;5080197;28;1015;-37
2022/01/09 05:18:52;;;;;;;;;;;22.60;50.70;;;;;;5079765;28;968;-37
2022/01/09 05:21:19;;;;;;;;;;;22.60;50.70;;;;;;5079889;28;1005;-39
2022/01/09 05:23:46;;;;;;;;;;;22.60;50.70;;;;;;5080547;28;996;-37
2022/01/09 05:26:14;;;;;;;;;;;22.60;50.70;;;;;;5079972;28;1899;-38
2022/01/09 05:28:41;;;;;;;;;;;22.60;50.70;;;;;;5078955;28;1000;-37
2022/01/09 05:31:07;;;;;;;;;;;22.50;50.70;;;;;;5080122;28;1050;-37
2022/01/09 05:33:34;;;;;;;;;;;22.50;50.60;;;;;;5079615;28;937;-36
2022/01/09 05:36:01;;;;;;;;;;;22.50;51.70;;;;;;5079816;28;1008;-37
2022/01/09 05:38:28;;;;;;;;;;;22.50;50.50;;;;;;5079625;28;1040;-36
2022/01/09 05:40:54;;;;;;;;;;;22.50;50.50;;;;;;5079778;28;853;-37
2022/01/09 05:43:22;;;;;;;;;;;22.50;50.50;;;;;;5079255;28;928;-36
2022/01/09 05:45:49;;;;;;;;;;;22.50;50.50;;;;;;5078588;28;1910;-36
2022/01/09 05:48:16;;;;;;;;;;;22.50;50.50;;;;;;5079185;28;992;-36
2022/01/09 05:50:43;;;;;;;;;;;22.50;50.50;;;;;;5079645;28;948;-36
2022/01/09 05:53:10;;;;;;;;;;;22.50;50.50;;;;;;5078685;28;1857;-36
2022/01/09 05:55:37;;;;;;;;;;;22.50;50.60;;;;;;5078850;28;1035;-37
2022/01/09 05:58:03;;;;;;;;;;;22.40;50.60;;;;;;5078919;28;966;-37
2022/01/09 06:00:32;;;;;;;;;;;22.40;50.50;;;;;;5079178;28;1008;-36
2022/01/09 06:02:58;;;;;;;;;;;22.40;50.50;;;;;;5079522;28;1010;-36
2022/01/09 06:05:25;;;;;;;;;;;22.40;50.60;;;;;;5079134;28;1910;-34
2022/01/09 06:07:52;;;;;;;;;;;22.40;50.60;;;;;;5078593;28;944;-35
2022/01/09 06:10:19;;;;;;;;;;;22.40;50.60;;;;;;5079256;28;920;-36
2022/01/09 06:12:46;;;;;;;;;;;22.40;50.60;;;;;;5078949;28;1060;-35
2022/01/09 06:15:13;;;;;;;;;;;22.40;50.40;;;;;;5079126;28;943;-35
2022/01/09 06:17:42;;;;;;;;;;;22.40;50.60;;;;;;5079226;28;1009;-37
2022/01/09 06:20:10;;;;;;;;;;;22.30;50.40;;;;;;5078979;28;977;-36
2022/01/09 06:22:37;;;;;;;;;;;22.30;50.40;;;;;;5078723;28;952;-36
2022/01/09 06:25:04;;;;;;;;;;;22.40;50.50;;;;;;5078905;28;1902;-35
2022/01/09 06:27:31;;;;;;;;;;;22.40;50.50;;;;;;5078880;28;1023;-35
2022/01/09 06:29:57;;;;;;;;;;;22.40;50.50;;;;;;5078936;28;1098;-36
2022/01/09 06:32:24;;;;;;;;;;;22.30;50.50;;;;;;5079109;28;1067;-35
2022/01/09 06:34:52;;;;;;;;;;;22.30;50.50;;;;;;5078712;28;937;-36
2022/01/09 06:37:19;;;;;;;;;;;22.30;50.50;;;;;;5078927;28;1203;-35
2022/01/09 06:39:46;;;;;;;;;;;22.30;50.50;;;;;;5077889;28;940;-35
2022/01/09 06:42:13;;;;;;;;;;;22.30;50.40;;;;;;5077729;28;984;-36
2022/01/09 06:44:40;;;;;;;;;;;22.30;50.60;;;;;;5077900;28;1898;-36
2022/01/09 06:47:06;;;;;;;;;;;22.30;50.50;;;;;;5077733;28;1772;-36
2022/01/09 06:49:34;;;;;;;;;;;22.30;50.50;;;;;;5077348;28;972;-35
2022/01/09 06:52:03;;;;;;;;;;;22.20;50.30;;;;;;5076565;28;931;-37
2022/01/09 06:54:30;;;;;;;;;;;22.20;50.50;;;;;;5075946;28;1019;-36
2022/01/09 06:56:57;;;;;;;;;;;22.20;50.50;;;;;;5077036;28;1140;-35
2022/01/09 06:59:24;;;;;;;;;;;22.20;50.60;;;;;;5077206;28;932;-35
2022/01/09 07:01:51;;;;;;;;;;;22.20;50.60;;;;;;5077923;28;989;-35
2022/01/09 07:04:18;;;;;;;;;;;22.20;50.50;;;;;;5077426;28;957;-36
2022/01/09 07:06:45;;;;;;;;;;;22.20;50.50;;;;;;5078301;28;1973;-36
2022/01/09 07:09:13;;;;;;;;;;;22.20;50.50;;;;;;5078234;28;968;-35
2022/01/09 07:11:39;;;;;;;;;;;22.20;50.50;;;;;;5078432;28;1024;-35
2022/01/09 07:14:06;;;;;;;;;;;22.20;50.50;;;;;;5077804;28;1040;-36
2022/01/09 07:16:33;;;;;;;;;;;22.20;50.50;;;;;;5078337;28;1011;-37
2022/01/09 07:19:00;;;;;;;;;;;22.20;50.50;;;;;;5077993;28;940;-35
2022/01/09 07:21:27;;;;;;;;;;;22.10;50.40;;;;;;5077536;28;974;-36
2022/01/09 07:23:54;;;;;;;;;;;22.10;50.40;;;;;;5077259;28;929;-35
2022/01/09 07:26:22;;;;;;;;;;;22.10;50.40;;;;;;5077032;28;1905;-36
2022/01/09 07:28:49;;;;;;;;;;;22.10;51.50;;;;;;5077427;28;1023;-36
2022/01/09 07:31:15;;;;;;;;;;;22.10;50.30;;;;;;5078091;28;1005;-35
2022/01/09 07:33:42;;;;;;;;;;;22.10;50.30;;;;;;5078326;28;1008;-35
2022/01/09 07:36:09;;;;;;;;;;;22.10;50.30;;;;;;5078182;28;1959;-34
2022/01/09 07:38:36;;;;;;;;;;;22.10;50.30;;;;;;5077901;28;1229;-35
2022/01/09 07:41:02;;;;;;;;;;;22.10;50.30;;;;;;5077532;28;924;-35
2022/01/09 07:43:30;;;;;;;;;;;22.10;50.20;;;;;;5077549;28;999;-34
2022/01/09 07:45:57;;;;;;;;;;;22.10;50.20;;;;;;5077205;28;1918;-35
2022/01/09 07:48:24;;;;;;;;;;;22.10;50.20;;;;;;5078158;28;956;-35
2022/01/09 07:50:51;;;;;;;;;;;22.10;50.10;;;;;;5077774;28;956;-35
2022/01/09 07:53:23;;;;;;;;;;;22.10;50.20;;;;;;5077987;28;1040;-36
2022/01/09 07:55:49;;;;;;;;;;;22.00;50.10;;;;;;5076991;28;1001;-35
2022/01/09 07:58:16;;;;;;;;;;;22.00;50.20;;;;;;5077188;28;1019;-36
2022/01/09 08:00:45;;;;;;;;;;;22.00;50.20;;;;;;5077781;28;921;-34
2022/01/09 08:03:11;;;;;;;;;;;22.00;50.30;;;;;;5077395;28;947;-35
2022/01/09 08:05:38;;;;;;;;;;;22.00;50.20;;;;;;5077309;28;2000;-35
2022/01/09 08:08:05;;;;;;;;;;;22.00;50.30;;;;;;5080609;28;1008;-34
2022/01/09 08:10:32;;;;;;;;;;;22.00;50.30;;;;;;5081017;28;944;-36
2022/01/09 08:13:00;;;;;;;;;;;22.00;50.30;;;;;;5080897;28;1032;-35
2022/01/09 08:15:27;;;;;;;;;;;21.90;50.50;;;;;;5080859;28;937;-35
2022/01/09 08:17:55;;;;;;;;;;;22.00;50.70;;;;;;5080539;28;1020;-34
2022/01/09 08:20:22;;;;;;;;;;;22.00;50.70;;;;;;5080489;28;900;-34
2022/01/09 08:22:49;;;;;;;;;;;22.10;50.70;;;;;;5080587;28;1387;-35
2022/01/09 08:25:17;;;;;;;;;;;22.20;50.60;;;;;;5080820;28;1989;-35
2022/01/09 08:27:44;;;;;;;;;;;22.20;50.50;;;;;;5080468;28;953;-38
2022/01/09 08:30:13;;;;;;;;;;;22.30;50.60;;;;;;5080198;28;936;-37
2022/01/09 08:32:40;;;;;;;;;;;22.30;50.50;;;;;;5079480;28;924;-35
2022/01/09 08:35:08;;;;;;;;;;;22.40;50.50;;;;;;5079947;28;1042;-35
2022/01/09 08:37:36;;;;;;;;;;;22.30;50.40;;;;;;5079847;28;1060;-35
2022/01/09 08:40:03;;;;;;;;;;;22.30;50.40;;;;;;5079786;28;1055;-34
2022/01/09 08:42:30;;;;;;;;;;;22.40;50.50;;;;;;5079887;28;928;-35
2022/01/09 08:44:57;;;;;;;;;;;22.40;50.30;;;;;;5080080;28;940;-34
2022/01/09 08:47:24;;;;;;;;;;;22.40;50.40;;;;;;5079337;28;1976;-35
2022/01/09 08:49:51;;;;;;;;;;;22.40;50.40;;;;;;5080238;28;1003;-35
2022/01/09 08:52:19;;;;;;;;;;;22.40;50.30;;;;;;5080139;28;987;-35
2022/01/09 08:54:46;;;;;;;;;;;22.40;50.30;;;;;;5079625;28;954;-35
2022/01/09 08:57:13;;;;;;;;;;;22.40;50.40;;;;;;5079998;28;1014;-37
2022/01/09 08:59:39;;;;;;;;;;;22.40;50.30;;;;;;5080412;28;933;-35
2022/01/09 09:02:06;;;;;;;;;;;22.40;50.20;;;;;;5079587;28;1016;-35
2022/01/09 09:04:33;;;;;;;;;;;22.40;50.30;;;;;;5079801;28;1005;-35
2022/01/09 09:07:00;;;;;;;;;;;22.40;50.40;;;;;;5079390;28;1997;-35
2022/01/09 09:09:28;;;;;;;;;;;22.40;50.40;;;;;;5078919;28;932;-35
2022/01/09 09:11:55;;;;;;;;;;;22.40;50.30;;;;;;5079056;28;1014;-35
2022/01/09 09:14:22;;;;;;;;;;;22.40;50.40;;;;;;5079202;28;1049;-34
2022/01/09 09:16:48;;;;;;;;;;;22.40;50.40;;;;;;5078722;28;1092;-34
2022/01/09 09:19:15;;;;;;;;;;;22.40;50.40;;;;;;5077990;28;944;-35
2022/01/09 09:21:43;;;;;;;;;;;22.40;50.40;;;;;;5079503;28;977;-36
2022/01/09 09:24:10;;;;;;;;;;;22.40;50.30;;;;;;5078421;28;984;-35
2022/01/09 09:26:38;;;;;;;;;;;22.40;50.30;;;;;;5081566;28;2001;-34
2022/01/09 09:29:07;;;;;;;;;;;22.40;50.20;;;;;;5079748;28;902;-34
2022/01/09 09:31:33;;;;;;;;;;;22.40;50.20;;;;;;5079405;28;992;-36
2022/01/09 09:34:00;;;;;;;;;;;22.40;50.10;;;;;;5079628;28;1962;-36
2022/01/09 09:36:27;;;;;;;;;;;22.50;50.10;;;;;;5079715;28;992;-35
2022/01/09 09:38:54;;;;;;;;;;;22.50;50.00;;;;;;5078484;28;1366;-35
2022/01/09 09:41:22;;;;;;;;;;;22.50;49.90;;;;;;5079154;28;1201;-35
2022/01/09 09:43:50;;;;;;;;;;;22.50;49.80;;;;;;5086274;28;2290;-35
2022/01/09 09:46:17;;;;;;;;;;;22.50;49.90;;;;;;5093536;28;2013;-35
2022/01/09 09:48:44;;;;;;;;;;;22.50;49.80;;;;;;5093728;28;925;-36
2022/01/09 09:51:11;;;;;;;;;;;22.40;49.90;;;;;;5099090;28;1042;-36
2022/01/09 09:53:38;;;;;;;;;;;22.40;49.80;;;;;;5098700;28;936;-35
2022/01/09 09:56:05;;;;;;;;;;;22.40;49.90;;;;;;5098082;28;970;-36
2022/01/09 09:58:32;;;;;;;;;;;22.40;49.90;;;;;;5090232;28;1817;-35
2022/01/09 10:01:00;;;;;;;;;;;22.40;50.00;;;;;;5077873;28;913;-35
2022/01/09 10:03:27;;;;;;;;;;;22.40;50.10;;;;;;5078737;28;2145;-35
2022/01/09 10:05:54;;;;;;;;;;;22.40;50.00;;;;;;5078628;28;1975;-34
2022/01/09 10:08:21;;;;;;;;;;;22.40;50.00;;;;;;5078742;28;1011;-35
2022/01/09 10:10:48;;;;;;;;;;;22.40;50.10;;;;;;5077954;28;1013;-35
2022/01/09 10:13:16;;;;;;;;;;;22.40;50.00;;;;;;5077649;28;1004;-35
2022/01/09 10:15:45;;;;;;;;;;;22.40;50.00;;;;;;5078074;28;993;-35
2022/01/09 10:18:13;;;;;;;;;;;22.30;50.00;;;;;;5078057;28;949;-35
2022/01/09 10:20:40;;;;;;;;;;;22.40;50.00;;;;;;5077519;28;1162;-34
2022/01/09 10:23:07;;;;;;;;;;;22.40;50.00;;;;;;5082486;28;1894;-35
2022/01/09 10:25:36;;;;;;;;;;;22.30;50.00;;;;;;5083053;28;2003;-35
2022/01/09 10:28:05;;;;;;;;;;;22.30;50.00;;;;;;5077336;28;1019;-34
2022/01/09 10:30:33;;;;;;;;;;;22.30;50.00;;;;;;5076364;28;1007;-35
2022/01/09 10:33:01;;;;;;;;;;;22.30;49.90;;;;;;5090513;28;924;-35
2022/01/09 10:35:30;;;;;;;;;;;22.30;49.90;;;;;;5098202;28;1035;-36
2022/01/09 10:38:12;;;;;;;;;;;22.30;49.90;;;;;;5098551;28;1170;-35
2022/01/09 10:40:39;;;;;;;;;;;22.30;50.00;;;;;;5097616;28;1039;-35
2022/01/09 10:43:07;;;;;;;;;;;22.30;50.00;;;;;;5097561;28;960;-34
2022/01/09 10:45:34;;;;;;;;;;;22.30;49.90;;;;;;5098576;28;1018;-36
2022/01/09 10:48:05;;;;;;;;;;;22.30;50.00;;;;;;5098543;28;1980;-35
2022/01/09 10:50:34;;;;;;;;;;;22.30;50.00;;;;;;5098314;28;1098;-36
2022/01/09 10:53:12;;;;;;;;;;;22.30;51.30;;;;;;5098417;28;941;-36
2022/01/09 10:55:38;;;;;;;;;;;22.30;50.10;;;;;;5100639;28;1056;-46
2022/01/09 10:58:15;;;;;;;;;;;22.30;50.00;;;;;;5102118;28;980;-38
2022/01/09 11:00:42;;;;;;;;;;;22.30;50.00;;;;;;5102042;28;996;-38
2022/01/09 11:03:09;;;;;;;;;;;22.30;50.00;;;;;;5101147;28;995;-38
2022/01/09 11:05:37;;;;;;;;;;;22.30;50.00;;;;;;5102026;28;1017;-39
2022/01/09 11:08:04;;;;;;;;;;;22.40;50.00;;;;;;5099765;28;1986;-37
2022/01/09 11:10:32;;;;;;;;;;;22.40;50.00;;;;;;5099684;28;1047;-38
2022/01/09 11:13:00;;;;;;;;;;;22.40;50.00;;;;;;5098729;28;1968;-38
2022/01/09 11:15:29;;;;;;;;;;;22.40;50.10;;;;;;5100231;28;1902;-38
2022/01/09 11:18:01;;;;;;;;;;;22.30;50.20;;;;;;5099618;28;1000;-38
2022/01/09 11:20:28;;;;;;;;;;;22.30;50.20;;;;;;5100443;28;1004;-38
2022/01/09 11:22:59;;;;;;;;;;;22.40;50.20;;;;;;5098897;28;1003;-38
2022/01/09 11:25:29;;;;;;;;;;;22.40;50.40;;;;;;5098906;28;1135;-37
2022/01/09 11:28:04;;;;;;;;;;;22.40;50.30;;;;;;5096369;28;1909;-37
2022/01/09 11:30:34;;;;;;;;;;;22.40;50.10;;;;;;5094399;28;1015;-36
2022/01/09 11:33:07;;;;;;;;;;;22.40;50.20;;;;;;5096946;28;1000;-36
2022/01/09 11:35:39;;;;;;;;;;;22.40;50.10;;;;;;5096978;28;959;-36
2022/01/09 11:38:13;;;;;;;;;;;22.40;50.20;;;;;;5097283;28;1265;-36
2022/01/09 11:40:39;;;;;;;;;;;22.50;50.90;;;;;;5096807;28;1035;-37
2022/01/09 11:43:08;;;;;;;;;;;22.50;50.40;;;;;;5101809;28;1253;-38
2022/01/09 11:45:42;;;;;;;;;;;22.60;50.80;;;;;;5102166;28;1002;-37
2022/01/09 11:48:09;;;;;;;;;;;22.60;50.30;;;;;;5101500;28;1990;-37
2022/01/09 11:50:42;;;;;;;;;;;22.50;50.20;;;;;;5101790;28;927;-37
2022/01/09 11:53:10;;;;;;;;;;;22.40;50.20;;;;;;5100512;28;989;-37
2022/01/09 11:55:41;;;;;;;;;;;22.40;50.20;;;;;;5100015;28;948;-37
2022/01/09 11:58:09;;;;;;;;;;;22.40;50.20;;;;;;5098101;28;1700;-37
2022/01/09 12:00:37;;;;;;;;;;;22.40;50.10;;;;;;5100180;28;968;-37
2022/01/09 12:03:19;;;;;;;;;;;22.50;50.00;;;;;;5100590;28;1251;-38
2022/01/09 12:06:00;;;;;;;;;;;22.40;49.90;;;;;;5099592;28;1045;-37
2022/01/09 12:08:28;;;;;;;;;;;22.40;50.00;;;;;;5099616;28;1906;-37
2022/01/09 12:10:56;;;;;;;;;;;22.40;50.00;;;;;;5099767;28;968;-37
2022/01/09 12:13:50;;;;;;;;;;;22.40;49.90;;;;;;5100027;28;952;-37
2022/01/09 12:16:32;;;;;;;;;;;22.40;49.90;;;;;;5099934;28;982;-37
2022/01/09 12:18:58;;;;;;;;;;;22.40;50.00;;;;;;5099919;28;1601;-37
2022/01/09 12:21:44;;;;;;;;;;;22.40;50.00;;;;;;5099867;28;1039;-37
2022/01/09 12:24:31;;;;;;;;;;;22.40;50.10;;;;;;5100946;28;947;-38
2022/01/09 12:26:59;;;;;;;;;;;22.30;50.10;;;;;;5096596;28;1909;-38
2022/01/09 12:29:46;;;;;;;;;;;22.40;50.20;;;;;;5099739;28;864;-38
2022/01/09 12:32:28;;;;;;;;;;;22.30;50.20;;;;;;5101006;28;1030;-39
2022/01/09 12:35:10;;;;;;;;;;;22.30;50.20;;;;;;5100575;28;1563;-38
2022/01/09 12:37:36;;;;;;;;;;;22.30;50.20;;;;;;5099576;28;1461;-38
2022/01/09 12:40:04;;;;;;;;;;;22.30;50.10;;;;;;5100903;28;1787;-37
2022/01/09 12:42:32;;;;;;;;;;;22.30;50.20;;;;;;5101102;28;1039;-37
2022/01/09 12:45:01;;;;;;;;;;;22.30;50.20;;;;;;5099364;28;1022;-38
2022/01/09 12:47:38;;;;;;;;;;;22.30;50.00;;;;;;5099860;28;1901;-39
2022/01/09 12:50:05;;;;;;;;;;;22.40;50.10;;;;;;5099742;28;965;-39
2022/01/09 12:52:32;;;;;;;;;;;22.40;50.10;;;;;;5099156;28;941;-41
2022/01/09 12:55:03;;;;;;;;;;;22.40;50.90;;;;;;5099927;28;966;-39
2022/01/09 12:57:31;;;;;;;;;;;22.40;47.00;;;;;;5099916;28;995;-37
2022/01/09 12:59:58;;;;;;;;;;;22.40;48.10;;;;;;5100678;28;991;-37
2022/01/09 13:02:25;;;;;;;;;;;22.40;49.30;;;;;;5100530;28;897;-37
2022/01/09 13:04:52;;;;;;;;;;;22.40;49.50;;;;;;5100638;28;999;-37
2022/01/09 13:07:19;;;;;;;;;;;22.40;49.50;;;;;;5099788;28;1973;-38
2022/01/09 13:09:46;;;;;;;;;;;22.40;49.80;;;;;;5100096;28;918;-38
2022/01/09 13:12:14;;;;;;;;;;;22.40;50.00;;;;;;5100799;28;1045;-39
2022/01/09 13:14:45;;;;;;;;;;;22.40;50.10;;;;;;5099318;28;968;-37
2022/01/09 13:17:12;;;;;;;;;;;22.40;50.30;;;;;;5100451;28;933;-37
2022/01/09 13:19:39;;;;;;;;;;;22.40;50.40;;;;;;5098269;28;984;-37
2022/01/09 13:22:06;;;;;;;;;;;22.50;50.50;;;;;;5099339;28;999;-37
2022/01/09 13:24:33;;;;;;;;;;;22.40;50.40;;;;;;5099267;28;940;-37
2022/01/09 13:27:02;;;;;;;;;;;22.40;50.40;;;;;;5098712;28;1976;-37
2022/01/09 13:29:29;;;;;;;;;;;22.40;50.90;;;;;;5095350;28;829;-36
2022/01/09 13:31:58;;;;;;;;;;;22.40;50.70;;;;;;5096517;28;1084;-37
2022/01/09 13:34:29;;;;;;;;;;;22.40;50.60;;;;;;5096246;28;983;-37
2022/01/09 13:36:57;;;;;;;;;;;22.40;50.70;;;;;;5097377;28;1154;-37
2022/01/09 13:39:25;;;;;;;;;;;22.50;50.80;;;;;;5097421;28;988;-37
2022/01/09 13:41:59;;;;;;;;;;;22.50;50.60;;;;;;5095020;28;1000;-36
2022/01/09 13:44:27;;;;;;;;;;;22.40;50.40;;;;;;5098663;28;928;-37
2022/01/09 13:47:04;;;;;;;;;;;22.50;51.20;;;;;;5097777;28;1906;-38
2022/01/09 13:49:31;;;;;;;;;;;22.40;50.80;;;;;;5098850;28;1003;-38
2022/01/09 13:51:59;;;;;;;;;;;22.40;50.60;;;;;;5098300;28;1105;-37
2022/01/09 13:54:29;;;;;;;;;;;22.50;51.10;;;;;;5097713;28;980;-37
2022/01/09 13:56:59;;;;;;;;;;;22.40;50.80;;;;;;5098083;28;1091;-37
2022/01/09 13:59:34;;;;;;;;;;;22.30;50.90;;;;;;5098431;28;967;-37
2022/01/09 14:02:03;;;;;;;;;;;22.40;51.10;;;;;;5097538;28;1512;-37
2022/01/09 14:04:30;;;;;;;;;;;22.40;50.80;;;;;;5097613;28;1544;-37
2022/01/09 14:07:00;;;;;;;;;;;22.40;50.70;;;;;;5098792;28;1917;-37
2022/01/09 14:09:28;;;;;;;;;;;22.40;50.50;;;;;;5098630;28;1006;-37
2022/01/09 14:11:59;;;;;;;;;;;22.40;50.60;;;;;;5098711;28;995;-37
2022/01/09 14:14:32;;;;;;;;;;;22.40;50.50;;;;;;5099362;28;1003;-37
2022/01/09 14:16:59;;;;;;;;;;;22.40;50.40;;;;;;5098611;28;919;-37
2022/01/09 14:19:41;;;;;;;;;;;22.50;50.50;;;;;;5098297;28;924;-37
2022/01/09 14:22:09;;;;;;;;;;;22.60;50.60;;;;;;5098753;28;1221;-38
2022/01/09 14:24:36;;;;;;;;;;;22.70;51.00;;;;;;5097717;28;980;-38
2022/01/09 14:27:04;;;;;;;;;;;22.70;50.40;;;;;;5098293;28;1986;-38
2022/01/09 14:29:34;;;;;;;;;;;22.80;50.60;;;;;;5095039;28;965;-36
2022/01/09 14:32:01;;;;;;;;;;;22.80;50.70;;;;;;5097555;28;976;-35
2022/01/09 14:34:29;;;;;;;;;;;22.80;50.60;;;;;;5097107;28;873;-36
2022/01/09 14:36:56;;;;;;;;;;;22.90;50.60;;;;;;5096582;28;1134;-36
2022/01/09 14:39:27;;;;;;;;;;;22.90;51.90;;;;;;5097282;28;1068;-35
2022/01/09 14:41:55;;;;;;;;;;;22.90;50.90;;;;;;5096943;28;977;-36
2022/01/09 14:44:21;;;;;;;;;;;22.90;50.90;;;;;;5097652;28;925;-36